Airfield :
LOGIN :

Register | Disclaimer

   EN    FR    IT 

 










Legend :    VFR   Marginal VFR   IFR   Intensive IFR   Very Intensive IFR
Visi :
Ceiling :
>= 8 km
>= 3000ft
5 to 8 km
1000 to 3000 ft
1500m to 5 km
500 to 1000 ft
800 to 1500m
200 to 500 ft
< 800m
< 200 ft
Symbols :   Thunderstorms  Fog  Heavy snow  Heavy precipitations  Wind > 20 kt
SIGMETs :     Misc.  Thunderstorms  Icing  Turbulence  Mountain Waves  Volcanic Ashes






- Airport Elevation : 670 ft
- IATA code : MSQ


UMMS - Minsk - 2

CURRENT METAR :
  • 051042Z 31010G15MPS CAVOK 10/M08 Q1032 R31R/CLRD// R31L/////// NOSIG

EXPIRED METARs :
  • 051030Z 31008G14MPS 270V340 CAVOK 09/M06 Q1032 R31R/CLRD// R31L/////// NOSIG
  • 051000Z 32009G12MPS CAVOK 09/M06 Q1032 R31R/CLRD// R31L/////// NOSIG
  • 050930Z 31006G11MPS 260V340 CAVOK 08/M04 Q1032 R31R/CLRD// R31L/////// NOSIG
  • 050900Z 30008G12MPS 260V330 CAVOK 08/M05 Q1032 R31R/CLRD// R31L/////// NOSIG
  • 050830Z 32007G11MPS CAVOK 07/M04 Q1032 R31R/CLRD// R31L/////// NOSIG

TAF AMD TAF UMMS
Valid from the 05 at 09:00 until the 06 at 06:00 UTC


050917Z 0509/0606 28007G12MPS 9999 SCT020
TEMPO 0509/0518 30010G15MPS
TEMPO 0518/0606 1500 BR SCT003



MET'MAP, your aeronautical weather chart ! - Copyright ORBIFLY December 2007 - Disclaimer

ORBIFLY MET'MAP TEAM :

Programming & Development : Alexandra Zaïnal
Concept & original design : Baudouin d'Aumeries
Assistance for programming : Marc-Olivier Méhu
Technical & hardware support : Manuel Goepfert

Contact : metmap@orbifly.com




SOURCES & CREDITS :

   NOAA